Time;durP1;ratioP1;P1;durP2;ratioP2;P2;SDS_P1;SDS_P2;PMS_P1;PMS_P2;Temp;Humidity;BMP_temperature;BMP_pressure;BME280_temperature;BME280_humidity;BME280_pressure;Samples;Min_cycle;Max_cycle;Signal;HPM_P1;HPM_P2
2022/03/31 11:44:10;;;;;;;42.40;5.93;;;;;;;19.30;45.79;93426.19;6161504;22;20242;-75
2022/03/31 11:49:13;;;;;;;42.03;6.32;;;;;;;18.97;47.15;93407.25;6148953;22;20206;-74
2022/03/31 11:51:40;;;;;;;45.17;5.90;;;;;;;18.89;47.25;93405.34;6139980;23;20167;-76
2022/03/31 11:54:08;;;;;;;39.10;6.45;;;;;;;18.84;47.73;93437.84;6137646;23;20175;-77
2022/03/31 11:56:35;;;;;;;36.63;7.20;;;;;;;18.75;47.91;93360.66;6134762;23;20227;-76
2022/03/31 11:59:03;;;;;;;32.60;5.88;;;;;;;18.86;47.96;93390.91;6143321;23;20182;-76
2022/03/31 12:01:37;;;;;;;27.33;5.80;;;;;;;18.90;48.01;93372.69;6144737;23;20176;-75
2022/03/31 12:04:04;;;;;;;22.17;5.50;;;;;;;18.82;48.22;93352.31;6145656;23;20186;-75
2022/03/31 12:06:33;;;;;;;23.15;4.50;;;;;;;18.86;48.26;93379.59;6145298;23;20490;-75
2022/03/31 12:09:00;;;;;;;30.05;4.85;;;;;;;18.82;47.97;93378.63;6145536;23;20179;-76
2022/03/31 12:11:29;;;;;;;25.58;4.22;;;;;;;18.62;48.43;93337.78;6145415;23;20179;-76
2022/03/31 12:14:00;;;;;;;19.92;4.25;;;;;;;18.45;48.83;93354.22;6141174;23;20250;-76
2022/03/31 12:16:27;;;;;;;24.70;4.13;;;;;;;18.42;48.89;93359.28;6144878;23;20160;-75
2022/03/31 12:18:57;;;;;;;15.02;3.58;;;;;;;18.33;49.36;93366.31;6144668;23;20233;-77
2022/03/31 12:21:25;;;;;;;37.93;5.17;;;;;;;18.33;49.39;93348.69;6144148;23;20655;-80
2022/03/31 12:23:52;;;;;;;23.03;4.50;;;;;;;18.52;49.30;93369.63;6140200;23;20171;-78
2022/03/31 12:26:22;;;;;;;22.67;4.03;;;;;;;18.68;48.83;93363.69;6144638;23;20539;-76
2022/03/31 12:28:51;;;;;;;17.70;3.33;;;;;;;18.76;48.31;93343.75;6144852;23;20175;-76
2022/03/31 12:31:22;;;;;;;21.77;3.90;;;;;;;18.87;47.88;93358.25;6142919;23;20976;-76
2022/03/31 12:33:52;;;;;;;27.17;4.43;;;;;;;18.93;47.41;93372.81;6146095;23;20550;-78
2022/03/31 12:36:24;;;;;;;21.10;4.57;;;;;;;18.94;47.14;93366.50;6144963;23;20171;-76
2022/03/31 12:38:54;;;;;;;26.25;5.03;;;;;;;18.91;46.22;93345.25;6145634;23;20178;-77
2022/03/31 12:41:26;;;;;;;33.88;5.78;;;;;;;18.91;45.40;93353.94;6146210;23;20172;-76
2022/03/31 12:43:59;;;;;;;33.50;5.10;;;;;;;19.00;45.17;93369.78;6125627;23;20194;-77
2022/03/31 12:46:28;;;;;;;31.58;6.13;;;;;;;19.02;44.56;93342.06;6144404;23;20179;-78
2022/03/31 12:48:57;;;;;;;35.35;5.60;;;;;;;19.12;44.77;93297.03;6144931;23;20744;-77
2022/03/31 12:51:26;;;;;;;28.50;5.32;;;;;;;19.24;44.13;93313.06;6144607;23;20168;-78
2022/03/31 12:53:53;;;;;;;40.10;6.43;;;;;;;19.46;42.99;93311.44;6143777;23;20168;-77
2022/03/31 12:56:24;;;;;;;38.65;6.28;;;;;;;19.50;43.09;93338.75;6144678;23;20168;-78
2022/03/31 12:58:55;;;;;;;46.08;6.65;;;;;;;19.55;43.69;93333.34;6145811;23;20192;-78
2022/03/31 13:01:25;;;;;;;71.38;7.70;;;;;;;19.49;40.88;93331.91;6140794;23;20166;-82
2022/03/31 13:03:52;;;;;;;41.90;6.78;;;;;;;19.43;41.10;93352.34;6146005;23;20241;-82
2022/03/31 13:06:20;;;;;;;47.90;6.80;;;;;;;19.32;40.69;93300.19;6147227;23;20175;-81
2022/03/31 13:08:51;;;;;;;53.15;6.60;;;;;;;19.32;42.01;93314.16;6147274;23;20171;-83
2022/03/31 13:11:18;;;;;;;45.58;6.68;;;;;;;19.16;41.87;93269.00;6145576;23;20172;-82
2022/03/31 13:13:45;;;;;;;38.55;6.70;;;;;;;19.24;42.37;93289.34;6147027;23;20172;-82
2022/03/31 13:16:15;;;;;;;44.08;7.40;;;;;;;19.23;43.16;93282.50;6138217;23;20172;-82
2022/03/31 13:18:42;;;;;;;47.38;6.78;;;;;;;19.11;43.28;93306.00;6139326;23;20266;-81
2022/03/31 13:21:10;;;;;;;43.33;6.25;;;;;;;19.15;42.05;93282.47;6147337;23;20246;-83
2022/03/31 13:23:37;;;;;;;34.20;6.78;;;;;;;19.15;43.45;93290.38;6146777;23;20167;-81
2022/03/31 13:26:06;;;;;;;38.15;6.18;;;;;;;19.00;44.50;93288.94;6146392;23;20174;-83
2022/03/31 13:28:36;;;;;;;43.63;5.95;;;;;;;18.90;45.32;93291.84;6146206;23;21048;-83
2022/03/31 13:31:04;;;;;;;38.00;7.22;;;;;;;18.68;46.04;93268.16;6147523;23;20210;-84
2022/03/31 13:33:31;;;;;;;39.60;7.00;;;;;;;18.59;46.45;93275.22;6147812;23;20170;-83
2022/03/31 13:35:58;;;;;;;39.10;6.53;;;;;;;18.54;46.63;93262.97;6147749;23;20258;-81
2022/03/31 13:38:25;;;;;;;32.03;6.82;;;;;;;18.44;46.83;93275.59;6148466;23;20199;-80
2022/03/31 13:40:51;;;;;;;38.40;7.00;;;;;;;18.36;47.22;93256.03;6140484;23;20177;-79
2022/03/31 13:43:20;;;;;;;33.60;6.78;;;;;;;18.30;46.78;93257.22;6145929;23;20179;-80
2022/03/31 13:45:46;;;;;;;42.77;8.07;;;;;;;18.28;44.49;93248.88;6147145;23;20164;-80
2022/03/31 13:48:14;;;;;;;40.37;6.40;;;;;;;18.32;43.70;93241.94;6145660;23;20819;-80
2022/03/31 13:50:41;;;;;;;45.53;6.20;;;;;;;18.42;44.24;93246.94;6145632;23;20269;-76
2022/03/31 13:55:52;;;;;;;53.50;8.07;;;;;;;18.40;44.00;93204.38;6145410;23;20501;-78
2022/03/31 14:01:11;;;;;;;84.43;8.63;;;;;;;18.41;42.89;93242.00;6146554;23;20178;-85
2022/03/31 14:03:41;;;;;;;75.63;8.53;;;;;;;18.39;43.02;93163.34;6147807;23;20187;-86
2022/03/31 14:06:09;;;;;;;69.27;9.20;;;;;;;18.35;43.04;93101.91;6147432;23;20229;-78
2022/03/31 14:08:37;;;;;;;73.17;7.97;;;;;;;18.34;42.59;93120.63;6145357;23;20190;-77
2022/03/31 14:11:04;;;;;;;49.17;6.83;;;;;;;18.37;42.73;93125.28;6144287;23;20168;-76
2022/03/31 14:13:33;;;;;;;50.93;7.33;;;;;;;18.35;42.36;93137.97;6144526;23;20172;-76
2022/03/31 14:16:02;;;;;;;105.43;9.80;;;;;;;18.32;42.48;93143.84;6145047;23;20174;-77
2022/03/31 14:18:30;;;;;;;58.93;7.63;;;;;;;18.33;42.35;93121.69;6145633;23;20195;-76
2022/03/31 14:20:57;;;;;;;63.40;7.67;;;;;;;18.25;42.43;93123.22;6143846;23;20195;-77
2022/03/31 14:23:24;;;;;;;45.73;6.90;;;;;;;18.26;42.12;93163.44;6141953;23;20176;-78
2022/03/31 14:25:54;;;;;;;37.47;7.10;;;;;;;18.23;42.27;93114.06;6138442;23;20168;-77
2022/03/31 14:28:21;;;;;;;69.77;8.57;;;;;;;18.23;41.83;93119.34;6145829;23;20222;-76
2022/03/31 14:30:49;;;;;;;81.57;8.23;;;;;;;18.21;41.61;93129.41;6146031;23;20179;-77
2022/03/31 14:33:16;;;;;;;59.57;7.37;;;;;;;18.16;41.31;93177.63;6147700;23;20497;-77
2022/03/31 14:35:43;;;;;;;42.80;5.97;;;;;;;18.17;41.14;93175.78;6128827;23;20175;-77
2022/03/31 14:38:09;;;;;;;56.07;7.63;;;;;;;18.10;41.22;93134.91;6135879;23;20271;-78
2022/03/31 14:40:36;;;;;;;45.23;6.50;;;;;;;18.12;41.27;93082.78;6137589;23;20176;-77
2022/03/31 14:43:05;;;;;;;34.83;6.30;;;;;;;18.13;41.29;93117.72;6131765;23;20171;-77
2022/03/31 14:45:32;;;;;;;45.27;6.93;;;;;;;18.13;41.20;93091.44;6143450;23;20227;-77
2022/03/31 14:48:00;;;;;;;45.37;6.70;;;;;;;18.11;40.68;93099.66;6142574;23;20212;-77
2022/03/31 14:50:28;;;;;;;46.70;7.17;;;;;;;18.10;40.98;93100.72;6136418;23;20226;-77
2022/03/31 14:52:55;;;;;;;45.47;6.60;;;;;;;18.14;40.53;93087.75;6147336;23;20710;-78
2022/03/31 14:55:22;;;;;;;56.43;7.60;;;;;;;18.18;40.58;93107.13;6147607;23;20167;-77
2022/03/31 14:57:48;;;;;;;36.07;5.87;;;;;;;18.10;40.25;93068.38;6147267;23;20206;-77
2022/03/31 15:00:16;;;;;;;57.27;7.60;;;;;;;18.19;40.64;93084.19;6147673;23;20167;-77
2022/03/31 15:02:42;;;;;;;46.47;8.03;;;;;;;18.12;40.39;93051.22;6147765;23;20175;-78
2022/03/31 15:05:12;;;;;;;58.70;7.43;;;;;;;18.11;40.54;93069.94;6148231;23;20567;-78
2022/03/31 15:07:39;;;;;;;41.57;6.80;;;;;;;18.15;40.67;93060.38;6148437;23;20164;-77
2022/03/31 15:15:36;;;;;;;39.90;6.03;;;;;;;18.14;40.26;93029.91;6149248;23;20267;-77
2022/03/31 15:18:03;;;;;;;39.60;7.00;;;;;;;18.22;40.31;93017.84;6148846;23;20192;-77
2022/03/31 15:20:31;;;;;;;39.20;6.13;;;;;;;18.27;39.55;93015.09;6149025;23;20634;-78
2022/03/31 15:22:59;;;;;;;48.67;6.47;;;;;;;18.26;39.77;93027.47;6149602;23;20263;-77
2022/03/31 15:25:25;;;;;;;67.13;7.77;;;;;;;18.28;39.21;93054.22;6148566;23;20168;-78
2022/03/31 15:27:52;;;;;;;47.27;5.90;;;;;;;18.31;39.16;93082.56;6149913;23;20163;-76
2022/03/31 15:30:19;;;;;;;36.90;5.83;;;;;;;18.33;38.42;93064.59;6148982;23;20178;-76
2022/03/31 15:32:48;;;;;;;48.17;7.03;;;;;;;18.33;38.62;93061.19;6148942;23;20175;-78
2022/03/31 15:35:15;;;;;;;52.70;7.33;;;;;;;18.35;37.59;93093.25;6149313;23;20498;-77
2022/03/31 15:37:44;;;;;;;41.50;6.00;;;;;;;18.35;37.85;93044.06;6148611;23;20191;-77
2022/03/31 15:40:13;;;;;;;40.87;5.93;;;;;;;18.33;38.16;93092.75;6148544;23;20486;-76
2022/03/31 15:42:40;;;;;;;44.77;6.70;;;;;;;18.31;37.94;93051.00;6148420;23;20942;-77
2022/03/31 15:45:07;;;;;;;48.83;6.60;;;;;;;18.37;36.09;93073.44;6148544;23;20694;-78
2022/03/31 15:47:35;;;;;;;43.73;6.30;;;;;;;18.42;36.68;93086.47;6147535;23;20208;-77
2022/03/31 15:50:03;;;;;;;44.13;6.50;;;;;;;18.40;35.42;93072.06;6148744;23;20160;-78
2022/03/31 15:52:30;;;;;;;46.73;7.27;;;;;;;18.40;36.75;93124.66;6148382;23;20205;-77
2022/03/31 15:54:59;;;;;;;87.57;10.27;;;;;;;18.49;35.62;93099.22;6147230;23;20247;-78
2022/03/31 15:57:26;;;;;;;61.37;7.87;;;;;;;18.45;36.67;93120.06;6148549;23;20257;-77
2022/03/31 15:59:53;;;;;;;44.97;6.50;;;;;;;18.38;36.49;93090.00;6148332;23;20230;-77
2022/03/31 16:02:20;;;;;;;45.23;7.47;;;;;;;18.31;37.95;93148.31;6148468;23;20179;-77
2022/03/31 16:04:47;;;;;;;37.83;7.37;;;;;;;18.21;38.34;93150.44;6149315;23;20167;-76
2022/03/31 16:07:13;;;;;;;48.30;6.83;;;;;;;18.09;38.92;93148.34;6148695;23;20179;-78
2022/03/31 16:09:42;;;;;;;38.60;7.57;;;;;;;18.00;39.35;93171.97;6148298;23;20172;-77
2022/03/31 16:12:10;;;;;;;50.27;7.43;;;;;;;17.88;40.29;93161.22;6149289;23;20202;-77
2022/03/31 16:14:37;;;;;;;55.97;7.80;;;;;;;17.78;40.45;93144.88;6148672;23;20528;-77
2022/03/31 16:17:05;;;;;;;38.53;6.60;;;;;;;17.71;41.27;93163.72;6148675;23;20167;-79
2022/03/31 16:19:32;;;;;;;43.70;7.00;;;;;;;17.59;42.50;93139.81;6148619;23;20198;-76
2022/03/31 16:21:59;;;;;;;34.13;6.87;;;;;;;17.49;43.85;93180.19;6149230;23;20175;-77
2022/03/31 16:24:26;;;;;;;43.27;7.87;;;;;;;17.32;46.36;93206.31;6148346;23;20222;-78
2022/03/31 16:26:53;;;;;;;46.03;8.43;;;;;;;17.06;48.38;93192.16;6148929;23;20225;-78
2022/03/31 16:29:21;;;;;;;33.77;6.87;;;;;;;16.87;50.76;93183.63;6149171;23;20175;-76
2022/03/31 16:31:48;;;;;;;48.57;7.27;;;;;;;16.42;51.92;93145.91;6148340;23;20179;-77
2022/03/31 16:34:16;;;;;;;32.87;7.33;;;;;;;16.28;53.28;93139.84;6148628;23;20168;-77
2022/03/31 16:36:43;;;;;;;43.97;7.13;;;;;;;16.16;53.08;93142.19;6148833;23;20168;-77
2022/03/31 16:39:12;;;;;;;38.80;7.20;;;;;;;16.02;53.33;93102.81;6148360;23;20207;-76
2022/03/31 16:41:39;;;;;;;46.60;7.30;;;;;;;15.92;52.99;93086.50;6148758;23;20167;-77
2022/03/31 16:44:06;;;;;;;31.97;7.07;;;;;;;15.84;53.95;93078.25;6148905;23;20240;-76
2022/03/31 16:46:34;;;;;;;27.27;6.17;;;;;;;15.89;50.48;93074.78;6148176;23;20164;-80
2022/03/31 16:49:01;;;;;;;55.27;7.40;;;;;;;15.97;50.69;93105.53;6147296;23;20264;-77
2022/03/31 16:51:28;;;;;;;50.23;7.50;;;;;;;16.06;48.84;93077.59;6148296;23;20172;-78
2022/03/31 16:53:55;;;;;;;36.30;7.17;;;;;;;16.15;47.87;93124.88;6148829;23;20174;-76
2022/03/31 16:56:23;;;;;;;50.20;8.57;;;;;;;16.28;47.66;93113.63;6148404;23;20168;-76
2022/03/31 16:58:50;;;;;;;51.57;7.30;;;;;;;16.34;46.95;93128.97;6148635;23;20176;-79
2022/03/31 17:01:17;;;;;;;42.10;7.87;;;;;;;16.39;46.09;93186.56;6148488;23;20245;-77
2022/03/31 17:03:45;;;;;;;31.57;6.10;;;;;;;16.53;45.41;93156.97;6147526;23;20172;-77
2022/03/31 17:06:14;;;;;;;42.77;6.47;;;;;;;16.57;45.47;93168.44;6148075;23;20182;-77
2022/03/31 17:08:41;;;;;;;35.13;7.33;;;;;;;16.57;45.33;93171.06;6149557;23;20242;-78
2022/03/31 17:11:08;;;;;;;44.97;7.67;;;;;;;16.60;45.96;93221.09;6148715;23;20642;-77
2022/03/31 17:13:36;;;;;;;32.83;5.80;;;;;;;16.62;45.79;93234.72;6149429;23;20692;-79
2022/03/31 17:16:03;;;;;;;43.73;7.53;;;;;;;16.61;46.04;93191.19;6149380;23;20174;-78
2022/03/31 17:18:31;;;;;;;37.93;6.57;;;;;;;16.59;46.57;93214.31;6149237;23;20731;-78
2022/03/31 17:20:59;;;;;;;36.73;6.10;;;;;;;16.51;47.18;93191.34;6149119;23;20571;-78
2022/03/31 17:23:27;;;;;;;38.27;6.60;;;;;;;16.53;47.04;93194.47;6149260;23;20217;-77
2022/03/31 17:25:54;;;;;;;34.53;5.90;;;;;;;16.46;47.52;93234.19;6149217;23;20168;-78
2022/03/31 17:28:23;;;;;;;36.23;6.87;;;;;;;16.45;47.51;93205.59;6149275;23;20164;-77
2022/03/31 17:30:50;;;;;;;50.60;6.37;;;;;;;16.44;47.52;93204.06;6149556;23;20646;-78
2022/03/31 17:33:17;;;;;;;32.10;6.40;;;;;;;16.38;48.35;93224.38;6148696;23;20175;-78
2022/03/31 17:35:46;;;;;;;32.77;6.47;;;;;;;16.37;48.42;93212.31;6149336;23;20634;-76
2022/03/31 17:38:18;;;;;;;26.97;4.73;;;;;;;16.36;48.03;93199.50;6149157;23;20175;-77
2022/03/31 17:40:47;;;;;;;33.60;5.43;;;;;;;16.30;48.37;93183.09;6149567;23;20243;-76
2022/03/31 17:43:15;;;;;;;30.63;5.93;;;;;;;16.31;47.91;93182.00;6149270;23;20637;-76
2022/03/31 17:45:42;;;;;;;37.47;6.33;;;;;;;16.37;47.11;93174.81;6149307;23;20229;-77
2022/03/31 17:48:10;;;;;;;27.40;5.70;;;;;;;16.48;47.11;93181.44;6149260;23;20265;-76
2022/03/31 17:50:38;;;;;;;34.27;5.70;;;;;;;16.47;47.20;93140.56;6149569;23;20175;-77
2022/03/31 17:53:05;;;;;;;28.40;5.97;;;;;;;16.43;46.87;93163.16;6150071;23;20221;-77
2022/03/31 17:55:33;;;;;;;36.93;6.00;;;;;;;16.52;46.63;93181.63;6149985;23;20263;-77
2022/03/31 17:58:00;;;;;;;34.77;6.70;;;;;;;16.56;47.19;93180.81;6151289;22;20567;-76
2022/03/31 18:00:27;;;;;;;25.70;5.53;;;;;;;16.60;46.79;93167.88;6150570;23;20232;-76
2022/03/31 18:02:56;;;;;;;27.80;5.50;;;;;;;16.65;47.20;93184.28;6149954;23;20708;-78
2022/03/31 18:05:26;;;;;;;33.20;6.13;;;;;;;16.72;47.25;93189.16;6150176;23;20168;-78
2022/03/31 18:07:54;;;;;;;36.93;6.60;;;;;;;16.72;47.48;93152.44;6150974;23;20162;-77
2022/03/31 18:10:24;;;;;;;32.67;6.47;;;;;;;16.67;47.98;93155.94;6150149;23;20553;-76
2022/03/31 18:12:54;;;;;;;33.63;6.13;;;;;;;16.71;47.23;93166.63;6150405;23;20175;-76
2022/03/31 18:15:23;;;;;;;33.73;6.07;;;;;;;16.71;47.13;93156.88;6150110;23;20207;-76
2022/03/31 18:17:52;;;;;;;32.83;6.93;;;;;;;16.73;47.46;93167.09;6149584;23;20190;-77
2022/03/31 18:20:20;;;;;;;30.77;5.40;;;;;;;16.76;47.44;93177.00;6150153;23;20204;-77
2022/03/31 18:22:49;;;;;;;29.77;5.90;;;;;;;16.73;47.40;93196.75;6150608;23;20172;-78
2022/03/31 18:25:19;;;;;;;33.40;6.30;;;;;;;16.72;47.46;93225.88;6150403;23;20167;-76
2022/03/31 18:27:49;;;;;;;29.73;6.47;;;;;;;16.74;47.11;93179.91;6146507;23;20220;-76
2022/03/31 18:35:50;;;;;;;33.40;6.00;;;;;;;16.88;46.46;93178.06;6147496;23;20230;-76
2022/03/31 18:38:18;;;;;;;32.47;6.67;;;;;;;16.88;46.70;93188.56;6147279;23;20175;-77
2022/03/31 18:40:45;;;;;;;32.53;5.80;;;;;;;16.94;46.46;93250.38;6148779;23;20175;-77
2022/03/31 18:43:12;;;;;;;34.77;6.57;;;;;;;16.98;46.17;93162.13;6147330;23;20169;-76
2022/03/31 18:45:41;;;;;;;29.37;5.43;;;;;;;17.08;46.03;93184.78;6148545;23;20168;-75
2022/03/31 18:48:10;;;;;;;33.93;6.00;;;;;;;17.06;46.16;93170.38;6149502;23;20200;-77
2022/03/31 18:50:39;;;;;;;31.97;6.23;;;;;;;17.14;45.92;93188.84;6150510;23;20171;-77
2022/03/31 18:53:06;;;;;;;30.67;5.87;;;;;;;17.08;46.05;93179.53;6149480;23;20167;-76
2022/03/31 18:55:33;;;;;;;33.13;6.20;;;;;;;17.07;46.21;93203.44;6150245;23;20229;-77
2022/03/31 18:58:00;;;;;;;34.20;5.93;;;;;;;17.02;46.44;93223.47;6147130;23;20582;-78
2022/03/31 19:00:27;;;;;;;27.90;5.57;;;;;;;17.07;46.09;93204.22;6149099;23;20198;-78
2022/03/31 19:02:55;;;;;;;26.50;5.43;;;;;;;17.15;45.96;93211.41;6147250;23;20883;-79
2022/03/31 19:05:22;;;;;;;29.60;5.93;;;;;;;17.20;45.92;93236.78;6147519;23;20183;-80
2022/03/31 19:07:51;;;;;;;25.53;5.37;;;;;;;17.17;46.18;93238.13;6149763;23;20175;-78
2022/03/31 19:10:20;;;;;;;24.27;5.00;;;;;;;17.16;46.46;93248.94;6149231;23;20170;-76
2022/03/31 19:12:47;;;;;;;24.77;5.07;;;;;;;17.11;46.47;93241.16;6149251;23;20180;-77
2022/03/31 19:15:14;;;;;;;29.50;5.73;;;;;;;17.10;46.37;93221.22;6149729;23;20163;-77
2022/03/31 19:17:41;;;;;;;25.30;4.73;;;;;;;17.13;46.77;93257.41;6149139;23;20168;-78
2022/03/31 19:20:12;;;;;;;25.43;5.07;;;;;;;17.14;46.84;93237.97;6149996;23;20234;-79
2022/03/31 19:22:39;;;;;;;26.80;5.63;;;;;;;17.11;46.95;93294.44;6149891;23;20156;-80
2022/03/31 19:25:08;;;;;;;19.80;5.00;;;;;;;17.16;46.84;93251.56;6149793;23;20512;-76
2022/03/31 19:27:35;;;;;;;27.23;4.57;;;;;;;17.14;46.91;93286.00;6149978;23;20171;-76
2022/03/31 19:30:02;;;;;;;20.30;4.53;;;;;;;17.15;47.30;93231.63;6150305;23;20198;-78
2022/03/31 19:32:29;;;;;;;20.50;5.00;;;;;;;17.14;47.37;93230.06;6148821;23;20163;-76
2022/03/31 19:34:55;;;;;;;25.77;4.70;;;;;;;17.10;47.63;93244.84;6149521;23;20174;-79
2022/03/31 19:37:24;;;;;;;21.50;5.20;;;;;;;17.00;47.85;93248.44;6149454;23;20171;-78
2022/03/31 19:39:51;;;;;;;29.53;5.63;;;;;;;16.73;49.53;93245.81;6150223;23;20206;-76
2022/03/31 19:42:18;;;;;;;24.07;5.17;;;;;;;16.71;49.14;93248.72;6149235;23;20179;-77
2022/03/31 19:44:46;;;;;;;23.17;6.07;;;;;;;16.44;50.83;93235.53;6149280;23;20174;-76
2022/03/31 19:47:13;;;;;;;40.10;6.97;;;;;;;16.31;51.82;93246.75;6147643;23;20168;-77
2022/03/31 19:49:41;;;;;;;35.27;6.40;;;;;;;16.13;53.33;93237.13;6144222;23;20178;-76
2022/03/31 19:52:09;;;;;;;33.67;6.53;;;;;;;15.96;54.19;93221.13;6145811;23;20943;-76
2022/03/31 19:54:39;;;;;;;40.13;7.50;;;;;;;15.93;53.61;93234.81;6148353;23;20156;-77
2022/03/31 19:57:06;;;;;;;33.87;6.90;;;;;;;15.90;53.82;93250.00;6147245;23;20168;-78
2022/03/31 19:59:35;;;;;;;30.30;5.70;;;;;;;16.02;52.41;93227.81;6149861;23;20202;-79
2022/03/31 20:02:02;;;;;;;40.90;7.50;;;;;;;16.12;52.54;93251.28;6149245;23;20506;-78
2022/03/31 20:04:28;;;;;;;38.53;7.03;;;;;;;16.21;52.34;93262.66;6148069;23;20160;-77
2022/03/31 20:07:02;;;;;;;35.00;6.67;;;;;;;16.18;52.65;93263.22;6146209;23;20176;-79
2022/03/31 20:09:30;;;;;;;22.33;5.30;;;;;;;16.22;52.76;93298.31;6148956;23;20156;-79
2022/03/31 20:12:00;;;;;;;34.53;5.70;;;;;;;16.23;52.74;93237.72;6149622;23;20727;-78
2022/03/31 20:14:27;;;;;;;27.87;6.00;;;;;;;16.29;52.87;93202.50;6150251;23;20171;-78
2022/03/31 20:16:54;;;;;;;30.67;5.23;;;;;;;16.34;52.52;93191.13;6149234;23;20175;-78
2022/03/31 20:19:22;;;;;;;27.90;6.03;;;;;;;16.33;53.05;93197.44;6149750;23;20692;-82
2022/03/31 20:21:50;;;;;;;30.03;5.73;;;;;;;16.36;53.15;93234.34;6149612;23;20168;-77
2022/03/31 20:24:17;;;;;;;25.20;5.57;;;;;;;16.29;53.34;93207.72;6149401;23;20172;-77
2022/03/31 20:26:44;;;;;;;29.23;5.57;;;;;;;16.36;52.98;93215.97;6150294;23;20168;-79
2022/03/31 20:29:16;;;;;;;19.27;4.70;;;;;;;16.38;53.48;93216.50;6146198;23;20658;-77
2022/03/31 20:31:44;;;;;;;24.97;5.37;;;;;;;16.40;53.87;93218.81;6149997;23;20164;-78
2022/03/31 20:34:11;;;;;;;25.87;5.17;;;;;;;16.31;54.70;93236.28;6150457;23;20176;-81
2022/03/31 20:36:38;;;;;;;26.23;5.67;;;;;;;16.32;54.90;93188.81;6150823;23;20174;-78
2022/03/31 20:39:06;;;;;;;25.30;4.73;;;;;;;16.23;54.99;93206.25;6148242;23;20176;-78
2022/03/31 20:41:34;;;;;;;28.33;5.17;;;;;;;16.20;55.18;93232.25;6146441;23;20167;-79
2022/03/31 20:44:01;;;;;;;19.73;4.67;;;;;;;16.16;55.76;93199.84;6150269;23;20171;-78
2022/03/31 20:46:30;;;;;;;21.10;4.30;;;;;;;16.10;55.73;93248.16;6151249;23;20685;-79
2022/03/31 20:48:57;;;;;;;17.07;4.33;;;;;;;16.12;55.30;93211.97;6149075;23;20195;-80
2022/03/31 20:51:24;;;;;;;17.43;4.63;;;;;;;16.12;55.56;93191.00;6152646;23;20218;-78
2022/03/31 20:53:50;;;;;;;24.13;4.70;;;;;;;16.08;55.62;93218.81;6150567;23;20175;-86
2022/03/31 20:56:19;;;;;;;19.17;4.20;;;;;;;16.16;55.27;93165.78;6150843;23;20170;-78
2022/03/31 20:58:46;;;;;;;20.03;4.23;;;;;;;16.17;55.37;93186.44;6150795;23;20176;-84
2022/03/31 21:01:14;;;;;;;19.67;3.97;;;;;;;16.15;54.76;93140.63;6151011;23;20538;-78
2022/03/31 21:03:45;;;;;;;17.23;3.70;;;;;;;16.19;54.83;93155.47;6150881;23;20179;-81
2022/03/31 21:06:12;;;;;;;20.33;4.00;;;;;;;16.27;54.31;93196.75;6151630;23;20164;-83
2022/03/31 21:08:39;;;;;;;15.77;4.40;;;;;;;16.28;54.15;93200.91;6150413;23;20174;-78
2022/03/31 21:11:06;;;;;;;20.40;4.20;;;;;;;16.33;53.95;93192.97;6151574;23;20178;-81
2022/03/31 21:13:33;;;;;;;22.10;4.13;;;;;;;16.29;54.83;93212.19;6151983;23;20172;-81
2022/03/31 21:15:59;;;;;;;19.10;4.30;;;;;;;16.27;55.20;93201.22;6151673;23;20171;-80
2022/03/31 21:18:26;;;;;;;19.40;4.43;;;;;;;16.17;55.64;93232.84;6151716;23;20164;-80
2022/03/31 21:20:56;;;;;;;17.03;4.27;;;;;;;16.18;55.24;93227.31;6149702;23;20202;-80
2022/03/31 21:23:23;;;;;;;18.30;4.60;;;;;;;16.22;55.20;93246.63;6149735;23;20176;-81
2022/03/31 21:25:50;;;;;;;19.33;4.47;;;;;;;16.12;56.07;93207.50;6151074;23;20176;-79
2022/03/31 21:28:17;;;;;;;28.57;5.07;;;;;;;16.14;56.04;93215.06;6150957;23;20506;-81
2022/03/31 21:30:44;;;;;;;19.33;4.70;;;;;;;16.08;55.96;93224.84;6152964;23;20172;-80
2022/03/31 21:33:11;;;;;;;24.53;5.00;;;;;;;16.03;56.84;93243.28;6153004;23;20580;-81
2022/03/31 21:35:38;;;;;;;23.87;5.10;;;;;;;16.07;56.60;93253.97;6150472;23;20254;-80
2022/03/31 21:38:07;;;;;;;21.80;5.37;;;;;;;16.00;57.22;93219.47;6151909;23;20483;-80
2022/03/31 21:40:37;;;;;;;24.17;5.07;;;;;;;15.95;58.04;93245.78;6152198;23;20195;-80
2022/03/31 21:43:03;;;;;;;16.13;4.60;;;;;;;15.97;57.21;93243.63;6151718;23;20229;-81
2022/03/31 21:45:30;;;;;;;14.17;4.87;;;;;;;15.98;58.08;93251.22;6151939;23;20277;-81
2022/03/31 21:47:57;;;;;;;21.27;5.80;;;;;;;15.84;57.93;93238.06;6151629;23;20553;-87
2022/03/31 21:54:07;;;;;;;19.23;4.93;;;;;;;15.57;58.06;93193.41;6119743;23;20171;-80
2022/03/31 21:57:01;;;;;;;20.83;5.80;;;;;;;15.86;59.09;93282.31;6147558;23;20244;-79
2022/03/31 21:59:39;;;;;;;19.43;4.40;;;;;;;15.84;58.60;93268.72;6150530;23;20191;-79
2022/03/31 22:02:08;;;;;;;13.83;4.17;;;;;;;15.80;58.72;93228.44;6149689;23;20558;-80
2022/03/31 22:04:35;;;;;;;19.80;4.17;;;;;;;15.74;57.56;93201.53;6149388;23;20168;-80
2022/03/31 22:07:22;;;;;;;22.93;4.50;;;;;;;15.83;57.28;93199.84;6149227;23;20170;-80
2022/03/31 22:13:09;;;;;;;12.83;3.53;;;;;;;15.99;56.54;93208.22;6149755;23;20158;-79
2022/03/31 22:18:48;;;;;;;17.50;4.33;;;;;;;16.07;57.48;93261.84;6143744;23;20186;-80
2022/03/31 22:21:15;;;;;;;11.37;3.13;;;;;;;16.05;56.29;93190.56;6149257;23;20686;-80
2022/03/31 22:23:42;;;;;;;15.43;3.60;;;;;;;16.02;57.16;93251.41;6149305;23;20647;-80
2022/03/31 22:26:10;;;;;;;15.53;3.73;;;;;;;15.94;57.08;93234.50;6149158;23;20630;-79
2022/03/31 22:28:37;;;;;;;21.80;3.70;;;;;;;16.01;59.54;93228.91;6149196;23;20167;-81
2022/03/31 22:31:04;;;;;;;19.93;4.33;;;;;;;15.86;59.97;93238.56;6150471;23;20187;-81
2022/03/31 22:33:31;;;;;;;19.13;4.93;;;;;;;15.88;59.98;93233.81;6149776;23;20178;-80
2022/03/31 22:35:58;;;;;;;24.00;4.00;;;;;;;15.87;59.25;93270.78;6150793;23;20190;-82
2022/03/31 22:38:26;;;;;;;26.30;5.40;;;;;;;15.86;59.50;93195.88;6150679;23;20179;-80
2022/03/31 22:40:53;;;;;;;36.57;5.73;;;;;;;15.71;60.31;93209.97;6149621;23;20258;-79
2022/03/31 22:43:21;;;;;;;35.17;6.97;;;;;;;15.75;59.42;93237.16;6149296;23;20638;-79
2022/03/31 22:45:48;;;;;;;35.00;6.17;;;;;;;15.70;59.12;93171.72;6151151;23;20175;-80
2022/03/31 22:48:15;;;;;;;22.07;4.90;;;;;;;15.75;58.88;93184.00;6149913;23;20203;-79
2022/03/31 22:50:43;;;;;;;30.83;6.53;;;;;;;15.73;58.93;93144.97;6150504;23;20172;-80
2022/03/31 22:53:10;;;;;;;23.40;5.20;;;;;;;15.79;56.11;93130.72;6150694;23;20175;-81
2022/03/31 22:55:37;;;;;;;33.63;7.10;;;;;;;15.86;57.45;93125.13;6150008;23;20174;-80
2022/03/31 22:58:04;;;;;;;31.33;6.63;;;;;;;15.92;54.77;93137.06;6149972;23;20214;-80
2022/03/31 23:00:35;;;;;;;30.03;5.73;;;;;;;15.91;54.18;93109.31;6151016;23;20202;-80
2022/03/31 23:03:01;;;;;;;33.77;6.73;;;;;;;16.11;54.32;93137.00;6150070;23;20159;-80
2022/03/31 23:05:29;;;;;;;35.30;6.23;;;;;;;16.08;54.40;93137.56;6150531;23;20680;-80
2022/03/31 23:07:56;;;;;;;40.57;6.80;;;;;;;16.13;53.05;93155.84;6150262;23;20182;-81
2022/03/31 23:10:23;;;;;;;42.30;6.97;;;;;;;16.22;50.88;93159.38;6150744;23;20163;-81
2022/03/31 23:12:59;;;;;;;45.43;6.97;;;;;;;16.23;52.70;93137.31;6150881;23;20178;-82
2022/03/31 23:15:26;;;;;;;35.63;7.00;;;;;;;16.09;57.02;93139.16;6150883;23;20221;-81
2022/03/31 23:17:54;;;;;;;39.03;7.90;;;;;;;15.92;59.08;93184.25;6150515;23;20613;-81
2022/03/31 23:20:22;;;;;;;40.37;6.77;;;;;;;15.59;60.31;93166.94;6150417;23;20196;-80
2022/03/31 23:22:49;;;;;;;39.63;6.70;;;;;;;15.38;62.09;93168.28;6150713;23;20171;-81
2022/03/31 23:25:16;;;;;;;41.53;7.60;;;;;;;15.43;58.07;93165.59;6151058;23;20171;-81
2022/03/31 23:27:43;;;;;;;39.00;7.03;;;;;;;15.29;62.29;93187.22;6150893;23;20214;-81
2022/03/31 23:30:10;;;;;;;43.37;7.30;;;;;;;15.34;56.34;93170.69;6151169;23;20168;-79
2022/03/31 23:32:37;;;;;;;32.67;7.97;;;;;;;15.15;63.70;93143.75;6150836;23;20254;-81
2022/03/31 23:35:06;;;;;;;40.37;7.13;;;;;;;15.11;61.76;93166.28;6151116;23;20167;-81
2022/03/31 23:37:35;;;;;;;33.30;7.40;;;;;;;15.11;63.34;93163.66;6149369;23;20175;-82
2022/03/31 23:40:03;;;;;;;39.93;7.87;;;;;;;14.98;63.81;93144.19;6148766;23;20208;-81